sensor_id;sensor_type;location;lat;lon;timestamp;temperature;humidity
24217;DHT22;12356;49.386;8.688;2023-03-23T00:00:17;15.00;11.10
24217;DHT22;12356;49.386;8.688;2023-03-23T00:02:49;15.00;11.20
24217;DHT22;12356;49.386;8.688;2023-03-23T00:05:20;15.00;11.20
24217;DHT22;12356;49.386;8.688;2023-03-23T00:07:50;15.00;11.20
24217;DHT22;12356;49.386;8.688;2023-03-23T00:10:22;15.00;11.30
24217;DHT22;12356;49.386;8.688;2023-03-23T00:12:54;15.00;10.90
24217;DHT22;12356;49.386;8.688;2023-03-23T00:15:27;15.00;10.50
24217;DHT22;12356;49.386;8.688;2023-03-23T00:18:00;15.00;11.40
24217;DHT22;12356;49.386;8.688;2023-03-23T00:20:35;15.00;11.00
24217;DHT22;12356;49.386;8.688;2023-03-23T00:23:10;15.00;10.80
24217;DHT22;12356;49.386;8.688;2023-03-23T00:25:41;15.00;10.60
24217;DHT22;12356;49.386;8.688;2023-03-23T00:28:12;15.00;10.70
24217;DHT22;12356;49.386;8.688;2023-03-23T00:30:43;15.00;10.60
24217;DHT22;12356;49.386;8.688;2023-03-23T00:33:14;15.00;11.00
24217;DHT22;12356;49.386;8.688;2023-03-23T00:35:47;15.00;10.90
24217;DHT22;12356;49.386;8.688;2023-03-23T00:38:18;15.00;10.80
24217;DHT22;12356;49.386;8.688;2023-03-23T00:40:50;15.00;11.50
24217;DHT22;12356;49.386;8.688;2023-03-23T00:43:20;15.00;11.00
24217;DHT22;12356;49.386;8.688;2023-03-23T00:45:55;14.90;10.90
24217;DHT22;12356;49.386;8.688;2023-03-23T00:48:28;14.90;10.90
24217;DHT22;12356;49.386;8.688;2023-03-23T00:50:59;14.90;11.00
24217;DHT22;12356;49.386;8.688;2023-03-23T00:53:34;14.90;10.90
24217;DHT22;12356;49.386;8.688;2023-03-23T00:56:06;15.00;10.70
24217;DHT22;12356;49.386;8.688;2023-03-23T00:58:37;15.00;11.40
24217;DHT22;12356;49.386;8.688;2023-03-23T01:01:08;15.00;11.70
24217;DHT22;12356;49.386;8.688;2023-03-23T01:03:39;14.90;10.90
24217;DHT22;12356;49.386;8.688;2023-03-23T01:06:10;14.90;10.80
24217;DHT22;12356;49.386;8.688;2023-03-23T01:08:44;14.90;10.70
24217;DHT22;12356;49.386;8.688;2023-03-23T01:11:19;15.00;10.30
24217;DHT22;12356;49.386;8.688;2023-03-23T01:13:51;15.00;10.60
24217;DHT22;12356;49.386;8.688;2023-03-23T01:16:21;15.00;10.60
24217;DHT22;12356;49.386;8.688;2023-03-23T01:18:52;15.00;10.70
24217;DHT22;12356;49.386;8.688;2023-03-23T01:21:23;15.00;10.40
24217;DHT22;12356;49.386;8.688;2023-03-23T01:23:55;15.00;10.30
24217;DHT22;12356;49.386;8.688;2023-03-23T01:26:27;15.00;10.00
24217;DHT22;12356;49.386;8.688;2023-03-23T01:28:58;15.00;10.40
24217;DHT22;12356;49.386;8.688;2023-03-23T01:31:29;15.00;10.60
24217;DHT22;12356;49.386;8.688;2023-03-23T01:34:00;14.90;10.90
24217;DHT22;12356;49.386;8.688;2023-03-23T01:36:31;14.90;11.10
24217;DHT22;12356;49.386;8.688;2023-03-23T01:39:04;14.80;11.30
24217;DHT22;12356;49.386;8.688;2023-03-23T01:41:35;14.80;11.10
24217;DHT22;12356;49.386;8.688;2023-03-23T01:46:46;14.80;10.50
24217;DHT22;12356;49.386;8.688;2023-03-23T01:49:22;14.80;10.60
24217;DHT22;12356;49.386;8.688;2023-03-23T01:51:56;14.80;10.60
24217;DHT22;12356;49.386;8.688;2023-03-23T01:54:28;14.80;11.10
24217;DHT22;12356;49.386;8.688;2023-03-23T01:57:04;14.80;11.20
24217;DHT22;12356;49.386;8.688;2023-03-23T01:59:36;14.80;11.50
24217;DHT22;12356;49.386;8.688;2023-03-23T02:02:07;14.80;11.00
24217;DHT22;12356;49.386;8.688;2023-03-23T02:04:38;14.80;11.20
24217;DHT22;12356;49.386;8.688;2023-03-23T02:07:13;14.80;11.40
24217;DHT22;12356;49.386;8.688;2023-03-23T02:09:45;14.80;10.90
24217;DHT22;12356;49.386;8.688;2023-03-23T02:12:16;14.80;10.50
24217;DHT22;12356;49.386;8.688;2023-03-23T02:14:46;14.80;10.40
24217;DHT22;12356;49.386;8.688;2023-03-23T02:20:38;14.90;10.00
24217;DHT22;12356;49.386;8.688;2023-03-23T02:23:43;14.90;10.20
24217;DHT22;12356;49.386;8.688;2023-03-23T02:26:47;14.90;9.90
24217;DHT22;12356;49.386;8.688;2023-03-23T02:34:44;15.00;10.20
24217;DHT22;12356;49.386;8.688;2023-03-23T02:37:29;15.00;10.40
24217;DHT22;12356;49.386;8.688;2023-03-23T02:40:09;15.00;10.60
24217;DHT22;12356;49.386;8.688;2023-03-23T02:42:45;15.00;10.60
24217;DHT22;12356;49.386;8.688;2023-03-23T02:45:19;15.00;10.10
24217;DHT22;12356;49.386;8.688;2023-03-23T02:47:53;15.00;10.40
24217;DHT22;12356;49.386;8.688;2023-03-23T02:50:25;15.00;10.80
24217;DHT22;12356;49.386;8.688;2023-03-23T02:52:57;15.00;11.10
24217;DHT22;12356;49.386;8.688;2023-03-23T02:55:29;15.00;11.20
24217;DHT22;12356;49.386;8.688;2023-03-23T02:58:01;14.90;11.40
24217;DHT22;12356;49.386;8.688;2023-03-23T03:00:32;15.00;12.30
24217;DHT22;12356;49.386;8.688;2023-03-23T03:03:04;14.90;11.80
24217;DHT22;12356;49.386;8.688;2023-03-23T03:05:53;14.90;12.20
24217;DHT22;12356;49.386;8.688;2023-03-23T03:08:47;14.80;11.70
24217;DHT22;12356;49.386;8.688;2023-03-23T03:11:19;14.80;11.60
24217;DHT22;12356;49.386;8.688;2023-03-23T03:14:08;14.80;11.70
24217;DHT22;12356;49.386;8.688;2023-03-23T03:16:49;14.80;11.50
24217;DHT22;12356;49.386;8.688;2023-03-23T03:19:26;14.80;11.10
24217;DHT22;12356;49.386;8.688;2023-03-23T03:21:59;14.90;10.30
24217;DHT22;12356;49.386;8.688;2023-03-23T03:24:31;14.90;10.40
24217;DHT22;12356;49.386;8.688;2023-03-23T03:27:02;14.90;10.60
24217;DHT22;12356;49.386;8.688;2023-03-23T03:29:37;14.90;10.70
24217;DHT22;12356;49.386;8.688;2023-03-23T03:32:12;14.90;10.60
24217;DHT22;12356;49.386;8.688;2023-03-23T03:34:44;14.90;10.80
24217;DHT22;12356;49.386;8.688;2023-03-23T03:37:15;14.90;10.60
24217;DHT22;12356;49.386;8.688;2023-03-23T03:39:46;14.90;10.90
24217;DHT22;12356;49.386;8.688;2023-03-23T03:42:17;14.90;11.60
24217;DHT22;12356;49.386;8.688;2023-03-23T03:44:47;14.90;10.90
24217;DHT22;12356;49.386;8.688;2023-03-23T03:47:18;14.90;11.10
24217;DHT22;12356;49.386;8.688;2023-03-23T03:49:48;14.90;11.00
24217;DHT22;12356;49.386;8.688;2023-03-23T03:52:19;14.90;11.40
24217;DHT22;12356;49.386;8.688;2023-03-23T03:54:49;14.90;11.30
24217;DHT22;12356;49.386;8.688;2023-03-23T03:57:20;14.90;11.30
24217;DHT22;12356;49.386;8.688;2023-03-23T03:59:51;14.90;11.20
24217;DHT22;12356;49.386;8.688;2023-03-23T04:02:22;14.90;11.70
24217;DHT22;12356;49.386;8.688;2023-03-23T04:04:53;14.90;11.60
24217;DHT22;12356;49.386;8.688;2023-03-23T04:07:23;14.90;11.60
24217;DHT22;12356;49.386;8.688;2023-03-23T04:09:56;14.90;12.20
24217;DHT22;12356;49.386;8.688;2023-03-23T04:12:27;14.80;12.30
24217;DHT22;12356;49.386;8.688;2023-03-23T04:14:57;14.90;12.40
24217;DHT22;12356;49.386;8.688;2023-03-23T04:17:28;14.80;12.30
24217;DHT22;12356;49.386;8.688;2023-03-23T04:19:59;14.80;13.00
24217;DHT22;12356;49.386;8.688;2023-03-23T04:22:30;14.80;12.50
24217;DHT22;12356;49.386;8.688;2023-03-23T04:25:01;14.80;13.10
24217;DHT22;12356;49.386;8.688;2023-03-23T04:27:36;14.80;12.70
24217;DHT22;12356;49.386;8.688;2023-03-23T04:30:07;14.80;13.10
24217;DHT22;12356;49.386;8.688;2023-03-23T04:32:39;14.70;14.10
24217;DHT22;12356;49.386;8.688;2023-03-23T04:35:13;14.70;13.90
24217;DHT22;12356;49.386;8.688;2023-03-23T04:37:44;14.70;13.80
24217;DHT22;12356;49.386;8.688;2023-03-23T04:40:15;14.70;14.20
24217;DHT22;12356;49.386;8.688;2023-03-23T04:42:47;14.70;14.40
24217;DHT22;12356;49.386;8.688;2023-03-23T04:45:20;14.70;14.80
24217;DHT22;12356;49.386;8.688;2023-03-23T04:47:52;14.70;15.40
24217;DHT22;12356;49.386;8.688;2023-03-23T04:50:28;14.60;15.20
24217;DHT22;12356;49.386;8.688;2023-03-23T04:53:02;14.60;15.70
24217;DHT22;12356;49.386;8.688;2023-03-23T04:55:36;14.60;15.70
24217;DHT22;12356;49.386;8.688;2023-03-23T04:58:08;14.60;17.60
24217;DHT22;12356;49.386;8.688;2023-03-23T05:00:39;14.60;18.80
24217;DHT22;12356;49.386;8.688;2023-03-23T05:03:11;14.60;22.10
24217;DHT22;12356;49.386;8.688;2023-03-23T05:05:42;14.50;24.40
24217;DHT22;12356;49.386;8.688;2023-03-23T05:08:14;14.40;26.40
24217;DHT22;12356;49.386;8.688;2023-03-23T05:10:52;14.40;25.60
24217;DHT22;12356;49.386;8.688;2023-03-23T05:13:23;14.30;24.50
24217;DHT22;12356;49.386;8.688;2023-03-23T05:15:54;14.30;25.50
24217;DHT22;12356;49.386;8.688;2023-03-23T05:18:24;14.30;26.40
24217;DHT22;12356;49.386;8.688;2023-03-23T05:21:00;14.20;27.30
24217;DHT22;12356;49.386;8.688;2023-03-23T05:23:30;14.20;29.00
24217;DHT22;12356;49.386;8.688;2023-03-23T05:26:01;14.20;31.50
24217;DHT22;12356;49.386;8.688;2023-03-23T05:28:32;14.10;31.30
24217;DHT22;12356;49.386;8.688;2023-03-23T05:31:03;14.00;30.30
24217;DHT22;12356;49.386;8.688;2023-03-23T05:33:35;14.00;30.90
24217;DHT22;12356;49.386;8.688;2023-03-23T05:36:06;14.00;32.40
24217;DHT22;12356;49.386;8.688;2023-03-23T05:38:41;14.00;33.50
24217;DHT22;12356;49.386;8.688;2023-03-23T05:41:15;14.00;35.10
24217;DHT22;12356;49.386;8.688;2023-03-23T05:43:46;14.00;36.00
24217;DHT22;12356;49.386;8.688;2023-03-23T05:46:16;14.00;35.40
24217;DHT22;12356;49.386;8.688;2023-03-23T05:48:48;13.90;34.40
24217;DHT22;12356;49.386;8.688;2023-03-23T05:51:19;13.90;34.10
24217;DHT22;12356;49.386;8.688;2023-03-23T05:53:50;13.90;34.30
24217;DHT22;12356;49.386;8.688;2023-03-23T05:56:21;13.90;33.30
24217;DHT22;12356;49.386;8.688;2023-03-23T05:58:52;13.90;34.10
24217;DHT22;12356;49.386;8.688;2023-03-23T06:01:24;13.90;32.90
24217;DHT22;12356;49.386;8.688;2023-03-23T06:03:55;13.90;30.10
24217;DHT22;12356;49.386;8.688;2023-03-23T06:06:29;13.90;29.90
24217;DHT22;12356;49.386;8.688;2023-03-23T06:09:01;13.90;29.10
24217;DHT22;12356;49.386;8.688;2023-03-23T06:11:31;13.90;29.30
24217;DHT22;12356;49.386;8.688;2023-03-23T06:14:02;13.90;29.60
24217;DHT22;12356;49.386;8.688;2023-03-23T06:16:33;13.90;29.30
24217;DHT22;12356;49.386;8.688;2023-03-23T06:19:03;13.90;28.60
24217;DHT22;12356;49.386;8.688;2023-03-23T06:21:34;14.00;28.30
24217;DHT22;12356;49.386;8.688;2023-03-23T06:24:05;14.00;28.90
24217;DHT22;12356;49.386;8.688;2023-03-23T06:26:37;14.00;28.70
24217;DHT22;12356;49.386;8.688;2023-03-23T06:29:08;14.00;27.90
24217;DHT22;12356;49.386;8.688;2023-03-23T06:31:52;14.00;28.60
24217;DHT22;12356;49.386;8.688;2023-03-23T06:34:24;14.00;28.30
24217;DHT22;12356;49.386;8.688;2023-03-23T06:36:55;14.00;28.10
24217;DHT22;12356;49.386;8.688;2023-03-23T06:39:26;14.10;27.90
24217;DHT22;12356;49.386;8.688;2023-03-23T06:41:57;14.10;26.60
24217;DHT22;12356;49.386;8.688;2023-03-23T06:44:29;14.10;27.70
24217;DHT22;12356;49.386;8.688;2023-03-23T06:47:00;14.10;27.70
24217;DHT22;12356;49.386;8.688;2023-03-23T06:49:32;14.10;26.80
24217;DHT22;12356;49.386;8.688;2023-03-23T06:52:03;14.10;26.90
24217;DHT22;12356;49.386;8.688;2023-03-23T06:54:34;14.10;27.10
24217;DHT22;12356;49.386;8.688;2023-03-23T06:57:05;14.10;26.90
24217;DHT22;12356;49.386;8.688;2023-03-23T06:59:36;14.20;25.90
24217;DHT22;12356;49.386;8.688;2023-03-23T07:02:09;14.20;26.60
24217;DHT22;12356;49.386;8.688;2023-03-23T07:04:44;14.20;26.30
24217;DHT22;12356;49.386;8.688;2023-03-23T07:07:15;14.20;24.30
24217;DHT22;12356;49.386;8.688;2023-03-23T07:09:48;14.30;23.90
24217;DHT22;12356;49.386;8.688;2023-03-23T07:12:19;14.30;24.20
24217;DHT22;12356;49.386;8.688;2023-03-23T07:14:50;14.30;23.80
24217;DHT22;12356;49.386;8.688;2023-03-23T07:17:21;14.30;23.50
24217;DHT22;12356;49.386;8.688;2023-03-23T07:19:51;14.40;23.30
24217;DHT22;12356;49.386;8.688;2023-03-23T07:22:22;14.40;23.90
24217;DHT22;12356;49.386;8.688;2023-03-23T07:24:52;14.40;25.50
24217;DHT22;12356;49.386;8.688;2023-03-23T07:27:23;14.40;26.10
24217;DHT22;12356;49.386;8.688;2023-03-23T07:29:54;14.30;26.90
24217;DHT22;12356;49.386;8.688;2023-03-23T07:32:25;14.30;28.40
24217;DHT22;12356;49.386;8.688;2023-03-23T07:34:55;14.30;29.70
24217;DHT22;12356;49.386;8.688;2023-03-23T07:37:26;14.20;28.80
24217;DHT22;12356;49.386;8.688;2023-03-23T07:39:58;14.20;29.30
24217;DHT22;12356;49.386;8.688;2023-03-23T07:42:29;14.20;29.40
24217;DHT22;12356;49.386;8.688;2023-03-23T07:44:59;14.10;31.30
24217;DHT22;12356;49.386;8.688;2023-03-23T07:47:30;14.10;31.30
24217;DHT22;12356;49.386;8.688;2023-03-23T07:50:01;14.20;31.60
24217;DHT22;12356;49.386;8.688;2023-03-23T07:52:33;14.10;31.00
24217;DHT22;12356;49.386;8.688;2023-03-23T07:55:05;14.10;27.70
24217;DHT22;12356;49.386;8.688;2023-03-23T07:57:36;14.20;28.30
24217;DHT22;12356;49.386;8.688;2023-03-23T08:00:08;14.20;28.60
24217;DHT22;12356;49.386;8.688;2023-03-23T08:02:51;14.20;27.70
24217;DHT22;12356;49.386;8.688;2023-03-23T08:05:23;14.20;28.00
24217;DHT22;12356;49.386;8.688;2023-03-23T08:07:56;14.30;27.80
24217;DHT22;12356;49.386;8.688;2023-03-23T08:10:26;14.20;28.50
24217;DHT22;12356;49.386;8.688;2023-03-23T08:12:57;14.20;28.90
24217;DHT22;12356;49.386;8.688;2023-03-23T08:15:29;14.30;27.90
24217;DHT22;12356;49.386;8.688;2023-03-23T08:18:00;14.30;27.50
24217;DHT22;12356;49.386;8.688;2023-03-23T08:20:31;14.30;28.00
24217;DHT22;12356;49.386;8.688;2023-03-23T08:23:03;14.30;28.90
24217;DHT22;12356;49.386;8.688;2023-03-23T08:25:34;14.40;29.00
24217;DHT22;12356;49.386;8.688;2023-03-23T08:28:04;14.40;28.50
24217;DHT22;12356;49.386;8.688;2023-03-23T08:30:38;14.40;28.30
24217;DHT22;12356;49.386;8.688;2023-03-23T08:33:09;14.40;27.40
24217;DHT22;12356;49.386;8.688;2023-03-23T08:35:40;14.40;28.00
24217;DHT22;12356;49.386;8.688;2023-03-23T08:38:11;14.40;28.60
24217;DHT22;12356;49.386;8.688;2023-03-23T08:40:43;14.40;29.00
24217;DHT22;12356;49.386;8.688;2023-03-23T08:43:14;14.40;28.30
24217;DHT22;12356;49.386;8.688;2023-03-23T08:45:45;14.40;28.60
24217;DHT22;12356;49.386;8.688;2023-03-23T08:48:16;14.40;29.80
24217;DHT22;12356;49.386;8.688;2023-03-23T08:50:48;14.40;29.90
24217;DHT22;12356;49.386;8.688;2023-03-23T08:53:19;14.40;27.90
24217;DHT22;12356;49.386;8.688;2023-03-23T08:55:51;14.40;28.00
24217;DHT22;12356;49.386;8.688;2023-03-23T08:58:21;14.40;28.20
24217;DHT22;12356;49.386;8.688;2023-03-23T09:00:53;14.40;28.80
24217;DHT22;12356;49.386;8.688;2023-03-23T09:03:24;14.40;29.10
24217;DHT22;12356;49.386;8.688;2023-03-23T09:06:02;14.40;29.50
24217;DHT22;12356;49.386;8.688;2023-03-23T09:08:33;14.40;29.60
24217;DHT22;12356;49.386;8.688;2023-03-23T09:11:07;14.40;28.70
24217;DHT22;12356;49.386;8.688;2023-03-23T09:13:39;14.40;30.00
24217;DHT22;12356;49.386;8.688;2023-03-23T09:16:10;14.40;31.00
24217;DHT22;12356;49.386;8.688;2023-03-23T09:18:40;14.40;30.20
24217;DHT22;12356;49.386;8.688;2023-03-23T09:21:11;14.40;29.00
24217;DHT22;12356;49.386;8.688;2023-03-23T09:23:42;14.50;29.90
24217;DHT22;12356;49.386;8.688;2023-03-23T09:26:14;14.50;29.90
24217;DHT22;12356;49.386;8.688;2023-03-23T09:28:45;14.50;30.30
24217;DHT22;12356;49.386;8.688;2023-03-23T09:31:15;14.50;31.00
24217;DHT22;12356;49.386;8.688;2023-03-23T09:33:46;14.50;29.80
24217;DHT22;12356;49.386;8.688;2023-03-23T09:36:18;14.60;27.50
24217;DHT22;12356;49.386;8.688;2023-03-23T09:38:51;14.60;29.00
24217;DHT22;12356;49.386;8.688;2023-03-23T09:41:36;14.60;28.90
24217;DHT22;12356;49.386;8.688;2023-03-23T09:49:40;14.70;29.80
24217;DHT22;12356;49.386;8.688;2023-03-23T09:52:14;14.70;30.00
24217;DHT22;12356;49.386;8.688;2023-03-23T09:54:53;14.80;29.10
24217;DHT22;12356;49.386;8.688;2023-03-23T09:57:37;14.80;28.90
24217;DHT22;12356;49.386;8.688;2023-03-23T10:00:15;14.80;28.50
24217;DHT22;12356;49.386;8.688;2023-03-23T10:03:02;14.80;28.80
24217;DHT22;12356;49.386;8.688;2023-03-23T10:05:39;14.80;28.50
24217;DHT22;12356;49.386;8.688;2023-03-23T10:08:25;14.90;28.50
24217;DHT22;12356;49.386;8.688;2023-03-23T10:13:50;15.00;29.30
24217;DHT22;12356;49.386;8.688;2023-03-23T10:16:30;15.00;29.10
24217;DHT22;12356;49.386;8.688;2023-03-23T10:19:29;15.10;29.10
24217;DHT22;12356;49.386;8.688;2023-03-23T10:22:08;15.10;27.60
24217;DHT22;12356;49.386;8.688;2023-03-23T10:24:50;15.20;28.40
24217;DHT22;12356;49.386;8.688;2023-03-23T10:30:29;15.30;27.10
24217;DHT22;12356;49.386;8.688;2023-03-23T10:33:15;15.30;26.50
24217;DHT22;12356;49.386;8.688;2023-03-23T10:35:55;15.30;27.40
24217;DHT22;12356;49.386;8.688;2023-03-23T10:38:31;15.20;27.00
24217;DHT22;12356;49.386;8.688;2023-03-23T10:41:14;15.20;27.50
24217;DHT22;12356;49.386;8.688;2023-03-23T10:43:47;15.30;27.50
24217;DHT22;12356;49.386;8.688;2023-03-23T10:48:53;15.30;27.40
24217;DHT22;12356;49.386;8.688;2023-03-23T10:51:32;15.20;27.50
24217;DHT22;12356;49.386;8.688;2023-03-23T10:54:05;15.20;27.10
24217;DHT22;12356;49.386;8.688;2023-03-23T10:56:44;15.20;27.70
24217;DHT22;12356;49.386;8.688;2023-03-23T10:59:19;15.20;28.60
24217;DHT22;12356;49.386;8.688;2023-03-23T11:01:56;15.20;29.50
24217;DHT22;12356;49.386;8.688;2023-03-23T11:04:30;15.20;29.20
24217;DHT22;12356;49.386;8.688;2023-03-23T11:07:03;15.20;29.40
24217;DHT22;12356;49.386;8.688;2023-03-23T11:09:39;15.20;29.70
24217;DHT22;12356;49.386;8.688;2023-03-23T11:12:18;15.20;29.70
24217;DHT22;12356;49.386;8.688;2023-03-23T11:14:49;15.20;28.80
24217;DHT22;12356;49.386;8.688;2023-03-23T11:17:23;15.20;29.00
24217;DHT22;12356;49.386;8.688;2023-03-23T11:19:54;15.20;29.30
24217;DHT22;12356;49.386;8.688;2023-03-23T11:22:31;15.20;29.30
24217;DHT22;12356;49.386;8.688;2023-03-23T11:25:05;15.10;29.80
24217;DHT22;12356;49.386;8.688;2023-03-23T11:27:38;15.10;30.50
24217;DHT22;12356;49.386;8.688;2023-03-23T11:32:44;15.10;32.20
24217;DHT22;12356;49.386;8.688;2023-03-23T11:35:19;15.10;32.00
24217;DHT22;12356;49.386;8.688;2023-03-23T11:37:53;15.10;31.80
24217;DHT22;12356;49.386;8.688;2023-03-23T11:40:30;15.10;32.00
24217;DHT22;12356;49.386;8.688;2023-03-23T11:43:13;15.10;32.40
24217;DHT22;12356;49.386;8.688;2023-03-23T11:48:42;15.10;31.80
24217;DHT22;12356;49.386;8.688;2023-03-23T11:51:20;15.10;31.80
24217;DHT22;12356;49.386;8.688;2023-03-23T11:54:13;15.10;31.30
24217;DHT22;12356;49.386;8.688;2023-03-23T11:56:46;15.10;31.30
24217;DHT22;12356;49.386;8.688;2023-03-23T11:59:26;15.10;32.40
24217;DHT22;12356;49.386;8.688;2023-03-23T12:07:45;15.00;32.90
24217;DHT22;12356;49.386;8.688;2023-03-23T12:10:31;15.00;32.50
24217;DHT22;12356;49.386;8.688;2023-03-23T12:13:34;15.00;32.20
24217;DHT22;12356;49.386;8.688;2023-03-23T12:19:07;15.00;33.10
24217;DHT22;12356;49.386;8.688;2023-03-23T12:21:48;15.00;32.80
24217;DHT22;12356;49.386;8.688;2023-03-23T12:33:12;14.90;31.00
24217;DHT22;12356;49.386;8.688;2023-03-23T12:44:57;14.80;30.00
24217;DHT22;12356;49.386;8.688;2023-03-23T12:47:54;14.80;29.90
24217;DHT22;12356;49.386;8.688;2023-03-23T12:50:37;14.80;30.20
24217;DHT22;12356;49.386;8.688;2023-03-23T12:53:36;14.80;30.80
24217;DHT22;12356;49.386;8.688;2023-03-23T12:56:24;14.80;30.60
24217;DHT22;12356;49.386;8.688;2023-03-23T12:59:22;14.80;30.20
24217;DHT22;12356;49.386;8.688;2023-03-23T13:01:59;14.90;30.00
24217;DHT22;12356;49.386;8.688;2023-03-23T13:04:36;14.90;30.10
24217;DHT22;12356;49.386;8.688;2023-03-23T13:07:16;14.90;29.60
24217;DHT22;12356;49.386;8.688;2023-03-23T13:10:27;14.90;29.70
24217;DHT22;12356;49.386;8.688;2023-03-23T13:12:59;14.90;29.50
24217;DHT22;12356;49.386;8.688;2023-03-23T13:16:06;15.00;29.10
24217;DHT22;12356;49.386;8.688;2023-03-23T13:19:08;15.00;28.60
24217;DHT22;12356;49.386;8.688;2023-03-23T13:21:50;15.00;28.50
24217;DHT22;12356;49.386;8.688;2023-03-23T13:24:25;15.00;28.40
24217;DHT22;12356;49.386;8.688;2023-03-23T13:26:59;15.00;28.30
24217;DHT22;12356;49.386;8.688;2023-03-23T13:29:32;15.00;28.40
24217;DHT22;12356;49.386;8.688;2023-03-23T13:32:11;15.00;28.40
24217;DHT22;12356;49.386;8.688;2023-03-23T13:34:42;14.90;28.30
24217;DHT22;12356;49.386;8.688;2023-03-23T13:39:58;15.00;28.40
24217;DHT22;12356;49.386;8.688;2023-03-23T13:42:30;15.00;28.10
24217;DHT22;12356;49.386;8.688;2023-03-23T13:45:22;14.90;28.30
24217;DHT22;12356;49.386;8.688;2023-03-23T13:53:50;14.90;27.10
24217;DHT22;12356;49.386;8.688;2023-03-23T13:56:39;14.90;26.70
24217;DHT22;12356;49.386;8.688;2023-03-23T13:59:47;14.90;26.70
24217;DHT22;12356;49.386;8.688;2023-03-23T14:02:38;14.90;26.30
24217;DHT22;12356;49.386;8.688;2023-03-23T14:07:52;14.90;26.00
24217;DHT22;12356;49.386;8.688;2023-03-23T14:10:23;14.80;26.20
24217;DHT22;12356;49.386;8.688;2023-03-23T14:12:55;14.80;26.10
24217;DHT22;12356;49.386;8.688;2023-03-23T14:15:29;14.80;25.80
24217;DHT22;12356;49.386;8.688;2023-03-23T14:18:03;14.80;25.90
24217;DHT22;12356;49.386;8.688;2023-03-23T14:20:36;14.80;26.10
24217;DHT22;12356;49.386;8.688;2023-03-23T14:23:15;14.80;26.90
24217;DHT22;12356;49.386;8.688;2023-03-23T14:25:55;14.90;27.10
24217;DHT22;12356;49.386;8.688;2023-03-23T14:28:31;14.80;26.80
24217;DHT22;12356;49.386;8.688;2023-03-23T14:31:03;14.90;26.80
24217;DHT22;12356;49.386;8.688;2023-03-23T14:33:34;14.90;27.20
24217;DHT22;12356;49.386;8.688;2023-03-23T14:36:05;14.80;26.70
24217;DHT22;12356;49.386;8.688;2023-03-23T14:38:36;14.80;26.80
24217;DHT22;12356;49.386;8.688;2023-03-23T14:41:10;14.90;26.80
24217;DHT22;12356;49.386;8.688;2023-03-23T14:43:41;14.90;26.70
24217;DHT22;12356;49.386;8.688;2023-03-23T14:46:13;14.90;26.80
24217;DHT22;12356;49.386;8.688;2023-03-23T14:48:44;14.90;27.60
24217;DHT22;12356;49.386;8.688;2023-03-23T14:51:18;14.90;27.50
24217;DHT22;12356;49.386;8.688;2023-03-23T14:53:52;14.90;27.20
24217;DHT22;12356;49.386;8.688;2023-03-23T14:56:23;14.90;28.30
24217;DHT22;12356;49.386;8.688;2023-03-23T14:59:04;14.80;29.40
24217;DHT22;12356;49.386;8.688;2023-03-23T15:01:37;14.80;29.70
24217;DHT22;12356;49.386;8.688;2023-03-23T15:04:12;14.80;30.10
24217;DHT22;12356;49.386;8.688;2023-03-23T15:06:54;14.80;30.10
24217;DHT22;12356;49.386;8.688;2023-03-23T15:09:26;14.80;31.10
24217;DHT22;12356;49.386;8.688;2023-03-23T15:12:03;14.80;30.90
24217;DHT22;12356;49.386;8.688;2023-03-23T15:14:45;14.80;30.80
24217;DHT22;12356;49.386;8.688;2023-03-23T15:17:20;14.80;30.40
24217;DHT22;12356;49.386;8.688;2023-03-23T15:19:53;14.80;29.90
24217;DHT22;12356;49.386;8.688;2023-03-23T15:22:27;14.90;30.40
24217;DHT22;12356;49.386;8.688;2023-03-23T15:27:57;14.90;30.10
24217;DHT22;12356;49.386;8.688;2023-03-23T15:30:32;14.90;29.70
24217;DHT22;12356;49.386;8.688;2023-03-23T15:33:06;14.90;29.40
24217;DHT22;12356;49.386;8.688;2023-03-23T15:35:45;14.90;29.50
24217;DHT22;12356;49.386;8.688;2023-03-23T15:38:24;14.90;29.50
24217;DHT22;12356;49.386;8.688;2023-03-23T15:40:58;14.80;30.90
24217;DHT22;12356;49.386;8.688;2023-03-23T15:43:49;14.80;31.00
24217;DHT22;12356;49.386;8.688;2023-03-23T15:46:24;14.80;31.10
24217;DHT22;12356;49.386;8.688;2023-03-23T15:51:30;14.80;31.10
24217;DHT22;12356;49.386;8.688;2023-03-23T15:54:01;14.80;30.50
24217;DHT22;12356;49.386;8.688;2023-03-23T15:56:31;14.80;30.10
24217;DHT22;12356;49.386;8.688;2023-03-23T15:59:02;14.90;29.90
24217;DHT22;12356;49.386;8.688;2023-03-23T16:01:33;14.90;29.60
24217;DHT22;12356;49.386;8.688;2023-03-23T16:04:12;14.90;29.10
24217;DHT22;12356;49.386;8.688;2023-03-23T16:06:44;14.90;29.70
24217;DHT22;12356;49.386;8.688;2023-03-23T16:09:17;14.90;29.20
24217;DHT22;12356;49.386;8.688;2023-03-23T16:11:48;15.00;27.70
24217;DHT22;12356;49.386;8.688;2023-03-23T16:14:19;14.90;28.10
24217;DHT22;12356;49.386;8.688;2023-03-23T16:16:50;15.00;27.70
24217;DHT22;12356;49.386;8.688;2023-03-23T16:19:22;15.00;27.60
24217;DHT22;12356;49.386;8.688;2023-03-23T16:21:53;15.00;27.00
24217;DHT22;12356;49.386;8.688;2023-03-23T16:24:24;15.00;27.20
24217;DHT22;12356;49.386;8.688;2023-03-23T16:26:54;15.00;27.10
24217;DHT22;12356;49.386;8.688;2023-03-23T16:29:25;15.00;27.10
24217;DHT22;12356;49.386;8.688;2023-03-23T16:31:57;15.10;27.40
24217;DHT22;12356;49.386;8.688;2023-03-23T16:34:27;15.10;27.50
24217;DHT22;12356;49.386;8.688;2023-03-23T16:37:02;15.10;27.20
24217;DHT22;12356;49.386;8.688;2023-03-23T16:39:33;15.10;26.80
24217;DHT22;12356;49.386;8.688;2023-03-23T16:42:03;15.10;26.80
24217;DHT22;12356;49.386;8.688;2023-03-23T16:44:34;15.10;27.80
24217;DHT22;12356;49.386;8.688;2023-03-23T16:47:05;15.10;27.80
24217;DHT22;12356;49.386;8.688;2023-03-23T16:49:35;15.10;27.30
24217;DHT22;12356;49.386;8.688;2023-03-23T16:52:06;15.10;27.30
24217;DHT22;12356;49.386;8.688;2023-03-23T16:54:36;15.10;28.00
24217;DHT22;12356;49.386;8.688;2023-03-23T16:57:07;15.10;26.80
24217;DHT22;12356;49.386;8.688;2023-03-23T16:59:37;15.10;26.70
24217;DHT22;12356;49.386;8.688;2023-03-23T17:02:11;15.10;26.90
24217;DHT22;12356;49.386;8.688;2023-03-23T17:04:45;15.10;27.20
24217;DHT22;12356;49.386;8.688;2023-03-23T17:07:16;15.10;27.30
24217;DHT22;12356;49.386;8.688;2023-03-23T17:09:46;15.10;27.90
24217;DHT22;12356;49.386;8.688;2023-03-23T17:12:17;15.10;28.10
24217;DHT22;12356;49.386;8.688;2023-03-23T17:14:48;15.00;28.40
24217;DHT22;12356;49.386;8.688;2023-03-23T17:17:18;15.00;28.40
24217;DHT22;12356;49.386;8.688;2023-03-23T17:19:49;15.00;28.40
24217;DHT22;12356;49.386;8.688;2023-03-23T17:22:20;15.00;28.50
24217;DHT22;12356;49.386;8.688;2023-03-23T17:24:51;15.00;28.90
24217;DHT22;12356;49.386;8.688;2023-03-23T17:27:22;15.00;28.40